Details for All Nippon Cargo at RJAA




Go Back


Latest METAR
Local Time

RJAA 221130Z VRB02KT 9999 MIFG FEW015 BKN/// 21/21 Q1012 BECMG TL1200 04006KT
22/09/2018, 21:04:41

Description
Results
All Nippon Cargo Logo
Number of Pilots based at RJAA
0 Pilots Based here
Number of All Nippon Cargo Flights Departed from RJAA
0 Flights Departed
Number of All Nippon Cargo Flights Arrived at RJAA
0 Flights Arrived
Number of All Nippon Cargo Schedules Departing from RJAA
16 Schedules
Number of All Nippon Cargo Schedules Arriving at RJAA
11 Schedules
Number of All Nippon Cargo Schedules Departing from RJAA availible today
9 Schedules Today
Number of All Nippon Cargo Schedules Arriving at RJAA availible today
8 Schedules Today
Average Landing Rate at RJAA
-101 fpm
All Nippon Cargo Average Landing Rate at RJAA
0 fpm
Total Fuel Purchased at RJAA by All Nippon Cargo
0.00 kgs / 0.00 lbs

Pilots Based at RJAA


Pilot ID
Pilot Name
Pilot Rank
No. of Flights
No. of Flying Hours
There are no pilots assigned to this hub!   Will you be the first?
Content